Time;durP1;ratioP1;P1;durP2;ratioP2;P2;SDS_P1;SDS_P2;PMS_P1;PMS_P2;Temp;Humidity;BMP_temperature;BMP_pressure;BME280_temperature;BME280_humidity;BME280_pressure;Samples;Min_cycle;Max_cycle;Signal;HPM_P1;HPM_P2
2022/07/27 00:02:19;;;;;;;3.05;1.55;;;14.50;99.90;;;;;;5016648;28;20046;-76
2022/07/27 00:04:44;;;;;;;4.72;2.15;;;14.50;99.90;;;;;;5020249;28;20060;-76
2022/07/27 00:07:10;;;;;;;5.57;1.70;;;14.40;99.90;;;;;;5020201;28;20045;-76
2022/07/27 00:09:35;;;;;;;3.75;2.28;;;14.40;99.90;;;;;;5024748;28;20402;-76
2022/07/27 00:12:01;;;;;;;4.43;2.00;;;14.30;99.90;;;;;;5021696;28;20048;-76
2022/07/27 00:14:28;;;;;;;3.03;1.60;;;14.30;99.90;;;;;;5013126;28;20061;-76
2022/07/27 00:16:53;;;;;;;2.30;1.67;;;14.30;99.90;;;;;;5026292;28;20041;-76
2022/07/27 00:19:19;;;;;;;5.07;1.60;;;14.60;99.90;;;;;;5029204;28;20442;-76
2022/07/27 00:21:44;;;;;;;3.97;1.83;;;14.30;99.90;;;;;;5035637;28;20041;-77
2022/07/27 00:24:10;;;;;;;4.78;1.95;;;14.30;99.90;;;;;;5026910;28;20056;-77
2022/07/27 00:26:36;;;;;;;4.40;1.75;;;14.10;99.90;;;;;;5027783;28;20462;-76
2022/07/27 00:29:01;;;;;;;4.22;1.95;;;14.00;99.90;;;;;;5011794;28;20041;-76
2022/07/27 00:31:27;;;;;;;4.60;2.00;;;14.30;99.90;;;;;;5017219;28;20037;-77
2022/07/27 00:33:55;;;;;;;3.92;1.95;;;14.00;99.90;;;;;;5021317;28;20044;-77
2022/07/27 00:36:21;;;;;;;3.00;1.60;;;14.00;99.90;;;;;;5008865;28;20406;-77
2022/07/27 00:38:47;;;;;;;5.38;1.90;;;14.00;99.90;;;;;;5010466;28;20041;-76
2022/07/27 00:41:16;;;;;;;2.53;1.80;;;14.00;99.90;;;;;;5029294;28;20378;-77
2022/07/27 00:43:58;;;;;;;2.97;1.60;;;14.00;99.90;;;;;;5011476;28;20550;-76
2022/07/27 00:46:25;;;;;;;3.20;1.77;;;13.90;99.90;;;;;;5026251;28;20044;-77
2022/07/27 00:48:52;;;;;;;3.88;1.80;;;13.90;99.90;;;;;;5026004;28;20038;-76
2022/07/27 00:51:19;;;;;;;3.78;1.65;;;13.80;99.90;;;;;;5023304;28;20075;-76
2022/07/27 00:53:47;;;;;;;3.70;1.42;;;13.80;99.90;;;;;;5017743;28;20042;-76
2022/07/27 00:56:13;;;;;;;2.75;1.40;;;13.80;99.90;;;;;;5022069;28;20040;-76
2022/07/27 00:58:39;;;;;;;3.95;1.60;;;13.70;99.90;;;;;;5010080;28;20150;-76
2022/07/27 01:01:05;;;;;;;1.85;1.33;;;13.80;99.90;;;;;;5026074;28;20091;-76
2022/07/27 01:03:32;;;;;;;2.63;1.40;;;13.70;99.90;;;;;;5025258;28;20125;-76
2022/07/27 01:05:58;;;;;;;3.55;1.40;;;13.70;99.90;;;;;;5020856;28;20482;-76
2022/07/27 01:08:25;;;;;;;2.35;1.50;;;13.70;99.90;;;;;;5019947;28;20037;-76
2022/07/27 01:10:55;;;;;;;1.63;1.20;;;13.70;99.90;;;;;;5013673;28;20426;-76
2022/07/27 01:13:23;;;;;;;4.43;1.77;;;13.70;99.90;;;;;;5035974;28;20473;-76
2022/07/27 01:15:51;;;;;;;4.38;1.80;;;13.70;99.90;;;;;;5025239;28;20091;-76
2022/07/27 01:18:35;;;;;;;3.28;1.73;;;13.80;99.90;;;;;;5017082;28;20041;-76
2022/07/27 01:21:04;;;;;;;3.20;1.70;;;13.80;99.90;;;;;;5015186;28;20041;-76
2022/07/27 01:23:34;;;;;;;4.65;1.90;;;14.00;99.90;;;;;;5022950;28;20079;-76
2022/07/27 01:26:00;;;;;;;4.47;1.60;;;13.90;99.90;;;;;;5018206;28;20045;-76
2022/07/27 01:28:27;;;;;;;3.13;1.98;;;13.90;99.90;;;;;;5028098;28;20045;-76
2022/07/27 01:30:57;;;;;;;3.53;1.52;;;13.90;99.90;;;;;;5026240;28;20458;-76
2022/07/27 01:33:26;;;;;;;3.25;1.60;;;14.00;99.90;;;;;;5046062;28;20464;-76
2022/07/27 01:35:54;;;;;;;5.22;1.75;;;14.00;99.90;;;;;;5033535;28;20076;-76
2022/07/27 01:38:20;;;;;;;5.28;2.20;;;14.30;99.90;;;;;;5030027;28;20048;-76
2022/07/27 01:40:45;;;;;;;5.88;2.10;;;14.40;99.90;;;;;;5036606;28;20034;-76
2022/07/27 01:43:14;;;;;;;5.28;2.00;;;14.00;99.90;;;;;;5030454;28;20524;-77
2022/07/27 01:45:40;;;;;;;6.93;2.58;;;14.10;99.90;;;;;;5026055;28;20033;-76
2022/07/27 01:48:06;;;;;;;5.00;2.33;;;14.10;99.90;;;;;;5027801;28;20091;-76
2022/07/27 01:50:33;;;;;;;5.13;2.15;;;14.40;99.90;;;;;;5025477;28;20042;-76
2022/07/27 01:52:58;;;;;;;4.35;2.20;;;14.10;99.90;;;;;;5023787;28;20048;-76
2022/07/27 01:55:24;;;;;;;5.78;2.38;;;14.10;99.90;;;;;;5026041;28;20406;-76
2022/07/27 01:57:51;;;;;;;6.93;2.17;;;14.10;99.90;;;;;;5011550;28;20180;-76
2022/07/27 02:00:17;;;;;;;7.35;2.17;;;14.00;99.90;;;;;;5011073;28;20049;-76
2022/07/27 02:02:44;;;;;;;2.53;1.90;;;14.00;99.90;;;;;;5021883;28;20041;-76
2022/07/27 02:05:12;;;;;;;5.22;2.00;;;14.00;99.90;;;;;;5024454;28;20076;-76
2022/07/27 02:07:39;;;;;;;4.75;2.13;;;13.90;99.90;;;;;;5019783;28;20127;-75
2022/07/27 02:10:05;;;;;;;6.15;2.00;;;14.20;99.90;;;;;;5020856;28;20037;-76
2022/07/27 02:12:36;;;;;;;5.10;2.20;;;13.80;99.90;;;;;;5026929;28;20041;-76
2022/07/27 02:15:11;;;;;;;5.13;2.10;;;13.80;99.90;;;;;;5028750;28;20172;-78
2022/07/27 02:17:38;;;;;;;5.50;2.25;;;13.70;99.90;;;;;;5029816;28;20029;-76
2022/07/27 02:20:06;;;;;;;7.72;2.92;;;13.70;99.90;;;;;;5023865;28;20151;-77
2022/07/27 02:22:32;;;;;;;3.70;2.10;;;13.60;99.90;;;;;;5024337;28;20037;-76
2022/07/27 02:24:57;;;;;;;5.10;2.45;;;13.60;99.90;;;;;;5025837;28;20401;-76
2022/07/27 02:27:23;;;;;;;5.32;2.40;;;13.60;99.90;;;;;;5013756;28;20387;-75
2022/07/27 02:29:49;;;;;;;4.50;2.15;;;13.90;99.90;;;;;;5028335;28;20042;-76
2022/07/27 02:32:15;;;;;;;5.13;2.42;;;13.50;99.90;;;;;;5021223;28;20041;-76
2022/07/27 02:34:41;;;;;;;5.50;2.22;;;13.70;99.90;;;;;;5027870;28;20061;-75
2022/07/27 02:37:07;;;;;;;6.13;2.13;;;13.50;99.90;;;;;;5029028;28;20037;-76
2022/07/27 02:39:33;;;;;;;5.03;2.45;;;13.50;99.90;;;;;;5021958;28;20044;-76
2022/07/27 02:41:58;;;;;;;4.30;2.30;;;13.50;99.90;;;;;;5026530;28;20033;-75
2022/07/27 02:44:24;;;;;;;5.07;2.50;;;13.40;99.90;;;;;;5023171;28;20034;-76
2022/07/27 02:46:49;;;;;;;3.17;2.22;;;13.40;99.90;;;;;;5020311;28;20576;-76
2022/07/27 02:49:15;;;;;;;4.35;1.90;;;13.40;99.90;;;;;;5024921;28;20094;-76
2022/07/27 02:51:41;;;;;;;4.07;2.05;;;13.50;99.90;;;;;;5036394;28;20044;-76
2022/07/27 02:54:06;;;;;;;3.40;2.25;;;13.40;99.90;;;;;;5028549;28;20119;-75
2022/07/27 02:56:32;;;;;;;5.05;2.30;;;13.30;99.90;;;;;;5026658;28;20124;-75
2022/07/27 02:58:58;;;;;;;5.22;2.40;;;13.30;99.90;;;;;;5019211;28;20528;-75
2022/07/27 03:01:24;;;;;;;6.07;2.60;;;13.30;99.90;;;;;;5024950;28;20509;-76
2022/07/27 03:03:49;;;;;;;5.13;2.75;;;13.30;99.90;;;;;;5019613;28;20095;-76
2022/07/27 03:06:15;;;;;;;3.92;2.30;;;13.20;99.90;;;;;;5027240;28;20045;-76
2022/07/27 03:08:40;;;;;;;5.28;2.58;;;13.20;99.90;;;;;;5025057;28;20130;-75
2022/07/27 03:11:07;;;;;;;4.55;2.58;;;13.20;99.90;;;;;;5023478;28;20038;-76
2022/07/27 03:13:33;;;;;;;6.97;2.78;;;13.10;99.90;;;;;;5000213;28;20033;-75
2022/07/27 03:15:58;;;;;;;5.88;2.88;;;13.20;99.90;;;;;;5019265;28;20103;-75
2022/07/27 03:18:24;;;;;;;5.03;2.47;;;13.10;99.90;;;;;;5028695;28;20045;-78
2022/07/27 03:20:50;;;;;;;11.23;2.78;;;13.10;99.90;;;;;;5041862;28;20045;-76
2022/07/27 03:23:18;;;;;;;4.55;2.55;;;13.20;99.90;;;;;;5029160;28;20079;-76
2022/07/27 03:25:44;;;;;;;5.25;2.35;;;13.10;99.90;;;;;;5021385;28;20057;-76
2022/07/27 03:28:10;;;;;;;8.43;2.80;;;13.00;99.90;;;;;;5035871;28;20037;-76
2022/07/27 03:30:35;;;;;;;5.43;2.78;;;13.00;99.90;;;;;;5008685;28;20038;-76
2022/07/27 03:33:04;;;;;;;5.50;2.58;;;13.00;99.90;;;;;;5044284;28;20037;-77
2022/07/27 03:35:29;;;;;;;7.05;2.80;;;13.00;99.90;;;;;;5019562;28;20034;-76
2022/07/27 03:37:55;;;;;;;5.50;2.75;;;13.00;99.90;;;;;;5018820;28;20045;-76
2022/07/27 03:40:22;;;;;;;4.10;2.70;;;13.00;99.90;;;;;;5022719;28;20072;-76
2022/07/27 03:42:47;;;;;;;4.30;2.28;;;13.00;99.90;;;;;;5026026;28;20038;-77
2022/07/27 03:45:14;;;;;;;3.70;1.73;;;12.90;99.90;;;;;;5029135;28;20449;-76
2022/07/27 03:47:42;;;;;;;2.67;1.30;;;12.80;99.90;;;;;;5027247;28;20040;-76
2022/07/27 03:50:08;;;;;;;2.42;1.38;;;12.80;99.90;;;;;;5020764;28;20585;-76
2022/07/27 03:52:34;;;;;;;3.22;1.60;;;12.70;99.90;;;;;;5022308;28;20040;-76
2022/07/27 03:55:00;;;;;;;5.85;2.03;;;12.70;99.90;;;;;;5017258;28;20387;-76
2022/07/27 03:57:25;;;;;;;3.00;1.80;;;12.70;99.90;;;;;;5004870;28;20040;-76
2022/07/27 03:59:51;;;;;;;5.72;2.30;;;12.80;99.90;;;;;;5025360;28;20059;-76
2022/07/27 04:02:16;;;;;;;4.45;2.53;;;12.70;99.90;;;;;;5030066;28;20038;-75
2022/07/27 04:04:42;;;;;;;2.75;2.10;;;12.70;99.90;;;;;;5020672;28;20513;-76
2022/07/27 04:07:08;;;;;;;1.80;1.42;;;12.70;99.90;;;;;;5017545;28;20070;-76
2022/07/27 04:09:34;;;;;;;2.10;1.52;;;12.60;99.90;;;;;;5020524;28;20502;-76
2022/07/27 04:12:00;;;;;;;2.42;1.30;;;12.60;99.90;;;;;;5033258;28;20045;-76
2022/07/27 04:14:26;;;;;;;2.67;1.33;;;12.90;99.90;;;;;;5027998;28;20392;-76
2022/07/27 04:16:51;;;;;;;2.28;1.40;;;12.50;99.90;;;;;;5022084;28;20116;-77
2022/07/27 04:19:17;;;;;;;3.55;1.70;;;12.90;99.90;;;;;;5021430;28;20421;-76
2022/07/27 04:21:45;;;;;;;2.58;1.73;;;12.40;99.90;;;;;;5020335;28;20037;-75
2022/07/27 04:24:13;;;;;;;4.93;1.90;;;12.40;99.90;;;;;;5013486;28;20042;-76
2022/07/27 04:26:40;;;;;;;3.83;1.95;;;12.40;99.90;;;;;;5026695;28;20038;-76
2022/07/27 04:29:06;;;;;;;3.70;1.90;;;12.80;99.90;;;;;;5006646;28;20034;-76
2022/07/27 04:31:32;;;;;;;4.07;2.15;;;12.40;99.90;;;;;;5036129;28;20045;-76
2022/07/27 04:33:59;;;;;;;2.70;2.10;;;12.50;99.90;;;;;;5020263;28;20053;-76
2022/07/27 04:36:25;;;;;;;5.13;2.17;;;12.40;99.90;;;;;;5010891;28;20629;-76
2022/07/27 04:38:51;;;;;;;2.95;2.15;;;13.10;99.90;;;;;;5022661;28;20120;-76
2022/07/27 04:41:16;;;;;;;4.38;2.40;;;12.40;99.90;;;;;;5019784;28;20403;-76
2022/07/27 04:43:42;;;;;;;5.65;2.50;;;12.40;99.90;;;;;;5018783;28;20179;-76
2022/07/27 04:46:08;;;;;;;4.93;2.60;;;12.40;99.90;;;;;;5022423;28;20073;-77
2022/07/27 04:48:35;;;;;;;4.20;2.67;;;12.40;99.90;;;;;;5026747;28;20569;-76
2022/07/27 04:51:01;;;;;;;5.55;2.65;;;12.40;99.90;;;;;;5053604;22;20063;-62
2022/07/27 04:53:27;;;;;;;3.65;2.35;;;12.40;99.90;;;;;;5050308;28;20630;-60
2022/07/27 04:55:52;;;;;;;4.70;2.50;;;12.40;99.90;;;;;;5042484;28;20127;-61
2022/07/27 04:58:18;;;;;;;3.28;1.85;;;12.40;99.90;;;;;;5061125;28;20743;-60
2022/07/27 05:00:44;;;;;;;4.03;2.60;;;12.40;99.90;;;;;;5046222;28;20055;-62
2022/07/27 05:03:09;;;;;;;6.20;3.10;;;12.40;99.90;;;;;;5042558;28;20037;-60
2022/07/27 05:05:36;;;;;;;5.32;2.97;;;12.40;99.90;;;;;;5046533;28;20549;-61
2022/07/27 05:08:02;;;;;;;5.25;3.10;;;12.50;99.90;;;;;;5035974;28;20351;-60
2022/07/27 05:10:28;;;;;;;7.43;3.63;;;12.60;99.90;;;;;;5030288;28;20033;-64
2022/07/27 05:12:54;;;;;;;5.20;3.08;;;12.70;99.90;;;;;;5050760;28;20069;-62
2022/07/27 05:15:20;;;;;;;6.43;3.15;;;12.80;99.90;;;;;;5044299;28;20557;-60
2022/07/27 05:17:46;;;;;;;4.68;2.90;;;12.90;99.90;;;;;;5038152;28;20037;-61
2022/07/27 05:20:12;;;;;;;6.13;3.20;;;13.00;99.90;;;;;;5039203;28;20044;-61
2022/07/27 05:22:37;;;;;;;6.72;3.40;;;13.10;99.90;;;;;;5044582;28;20044;-61
2022/07/27 05:25:03;;;;;;;6.57;3.15;;;13.20;99.90;;;;;;5051753;28;20043;-61
2022/07/27 05:27:29;;;;;;;6.45;3.30;;;13.20;99.90;;;;;;5048915;28;20037;-61
2022/07/27 05:29:55;;;;;;;7.80;3.13;;;13.30;99.90;;;;;;5046178;28;20398;-62
2022/07/27 05:32:20;;;;;;;8.25;3.50;;;13.40;99.90;;;;;;5046422;28;20041;-63
2022/07/27 05:34:46;;;;;;;5.80;3.03;;;13.40;99.90;;;;;;5049464;28;20498;-62
2022/07/27 05:37:12;;;;;;;4.93;3.22;;;13.40;99.90;;;;;;5031755;28;20072;-63
2022/07/27 05:39:41;;;;;;;5.13;3.25;;;13.50;99.90;;;;;;5049842;28;20063;-61
2022/07/27 05:42:10;;;;;;;7.07;3.25;;;13.50;99.90;;;;;;5046724;28;20068;-61
2022/07/27 05:44:35;;;;;;;4.53;2.90;;;13.50;99.90;;;;;;5049635;28;20383;-61
2022/07/27 05:47:01;;;;;;;4.97;2.55;;;13.50;99.90;;;;;;5039133;28;20036;-63
2022/07/27 05:49:27;;;;;;;6.65;3.40;;;13.60;99.90;;;;;;5042538;28;20041;-63
2022/07/27 05:51:53;;;;;;;5.93;3.13;;;13.70;99.90;;;;;;5046984;28;20063;-61
2022/07/27 05:54:18;;;;;;;5.22;3.08;;;13.70;99.90;;;;;;5048180;28;20132;-63
2022/07/27 05:56:45;;;;;;;5.45;2.60;;;13.90;99.90;;;;;;5033940;28;20037;-62
2022/07/27 05:59:11;;;;;;;5.75;2.67;;;13.90;99.90;;;;;;5040454;28;20036;-62
2022/07/27 06:01:37;;;;;;;12.65;3.17;;;14.00;99.90;;;;;;5044847;28;20029;-61
2022/07/27 06:04:03;;;;;;;6.95;2.63;;;14.10;99.90;;;;;;5046027;28;20489;-62
2022/07/27 06:09:13;;;;;;;4.75;2.60;;;14.20;99.90;;;;;;5043141;28;20040;-63
2022/07/27 06:11:39;;;;;;;4.10;2.30;;;14.30;99.90;;;;;;5044515;28;20052;-62
2022/07/27 06:14:05;;;;;;;5.47;2.60;;;14.40;99.90;;;;;;5041744;28;20049;-62
2022/07/27 06:16:30;;;;;;;5.20;2.30;;;14.40;99.90;;;;;;5047787;28;20045;-63
2022/07/27 06:18:56;;;;;;;4.85;2.42;;;14.50;99.90;;;;;;5040446;28;20037;-62
2022/07/27 06:21:26;;;;;;;5.78;2.63;;;14.60;99.90;;;;;;5039585;28;20041;-64
2022/07/27 06:23:53;;;;;;;4.60;2.17;;;14.60;99.90;;;;;;5051617;28;20049;-63
2022/07/27 06:26:19;;;;;;;4.15;2.47;;;14.70;99.90;;;;;;5043309;28;20418;-63
2022/07/27 06:28:45;;;;;;;6.72;2.53;;;14.80;99.90;;;;;;5037901;28;20511;-62
2022/07/27 06:31:11;;;;;;;8.00;2.50;;;14.90;99.90;;;;;;5037997;28;20049;-62
2022/07/27 06:33:37;;;;;;;4.53;2.33;;;14.90;99.90;;;;;;5050044;28;20112;-64
2022/07/27 06:36:04;;;;;;;7.25;2.40;;;15.00;99.90;;;;;;5049686;28;20167;-64
2022/07/27 06:38:30;;;;;;;2.97;2.10;;;15.10;99.90;;;;;;5042824;28;20437;-61
2022/07/27 06:40:56;;;;;;;3.22;1.80;;;15.10;99.90;;;;;;5051196;28;20406;-61
2022/07/27 06:43:26;;;;;;;4.95;1.90;;;15.20;99.90;;;;;;5041366;28;20041;-63
2022/07/27 06:45:53;;;;;;;6.05;1.80;;;15.20;99.90;;;;;;5041540;28;20041;-63
2022/07/27 06:48:22;;;;;;;3.83;1.75;;;15.30;99.90;;;;;;5021063;28;20217;-63
2022/07/27 06:50:48;;;;;;;5.05;1.80;;;15.30;99.90;;;;;;5046328;28;20078;-62
2022/07/27 06:53:14;;;;;;;4.80;1.60;;;15.40;99.90;;;;;;5037557;28;20041;-62
2022/07/27 06:55:40;;;;;;;4.53;1.83;;;15.40;99.90;;;;;;5044485;28;20087;-64
2022/07/27 06:58:06;;;;;;;3.47;1.55;;;15.40;99.90;;;;;;5038976;28;20049;-62
2022/07/27 07:00:32;;;;;;;5.57;1.70;;;15.50;99.90;;;;;;5042646;28;20037;-64
2022/07/27 07:03:00;;;;;;;4.82;1.70;;;15.50;99.90;;;;;;5047156;28;20068;-62
2022/07/27 07:05:26;;;;;;;8.23;1.88;;;15.60;99.90;;;;;;5046360;28;20040;-63
2022/07/27 07:07:52;;;;;;;5.68;1.95;;;15.60;99.90;;;;;;5031918;28;20045;-62
2022/07/27 07:10:19;;;;;;;7.68;1.60;;;15.70;99.90;;;;;;5043411;28;20041;-64
2022/07/27 07:12:45;;;;;;;4.97;1.83;;;15.70;99.90;;;;;;5045873;28;20095;-61
2022/07/27 07:15:12;;;;;;;4.93;1.75;;;15.70;99.90;;;;;;5023697;28;20044;-63
2022/07/27 07:17:38;;;;;;;7.25;2.20;;;15.80;99.90;;;;;;5050282;28;20037;-64
2022/07/27 07:20:04;;;;;;;4.05;1.75;;;15.80;99.90;;;;;;5048136;28;20044;-63
2022/07/27 07:22:32;;;;;;;4.70;1.70;;;15.90;99.90;;;;;;5043458;28;20044;-63
2022/07/27 07:25:01;;;;;;;7.15;1.70;;;15.90;99.90;;;;;;5048127;28;20112;-62
2022/07/27 07:27:27;;;;;;;3.85;1.63;;;16.00;99.90;;;;;;5045085;28;20037;-62
2022/07/27 07:29:53;;;;;;;5.85;1.85;;;16.10;99.90;;;;;;5045028;28;20112;-62
2022/07/27 07:32:23;;;;;;;5.60;1.45;;;16.20;99.90;;;;;;5049526;28;20052;-64
2022/07/27 07:34:50;;;;;;;5.65;1.80;;;16.20;99.90;;;;;;5046442;28;20033;-63
2022/07/27 07:37:18;;;;;;;4.88;1.67;;;16.30;99.90;;;;;;5045373;28;20091;-62
2022/07/27 07:39:43;;;;;;;4.50;1.50;;;16.30;99.90;;;;;;5043995;28;20079;-62
2022/07/27 07:42:09;;;;;;;5.20;1.73;;;16.40;99.90;;;;;;5050430;28;20076;-63
2022/07/27 07:44:35;;;;;;;4.53;1.40;;;16.40;99.90;;;;;;5047133;28;20076;-63
2022/07/27 07:47:01;;;;;;;2.15;1.33;;;16.40;99.90;;;;;;5031554;28;20111;-63
2022/07/27 07:49:26;;;;;;;5.60;1.70;;;16.40;99.90;;;;;;5038331;28;20032;-63
2022/07/27 07:51:52;;;;;;;3.60;1.48;;;16.40;99.90;;;;;;5044970;28;20036;-63
2022/07/27 07:54:17;;;;;;;3.92;1.60;;;16.50;99.90;;;;;;5048279;28;20041;-63
2022/07/27 07:56:43;;;;;;;5.28;1.60;;;16.50;99.90;;;;;;5048131;28;20059;-62
2022/07/27 07:59:09;;;;;;;5.63;1.58;;;16.50;99.90;;;;;;5043016;28;20121;-63
2022/07/27 08:01:35;;;;;;;4.30;2.05;;;16.50;99.90;;;;;;5048665;28;20376;-61
2022/07/27 08:04:00;;;;;;;4.03;1.50;;;16.50;99.90;;;;;;5043908;28;20045;-65
2022/07/27 08:06:27;;;;;;;3.97;1.55;;;16.60;99.90;;;;;;5045584;28;20041;-64
2022/07/27 08:08:53;;;;;;;7.22;1.80;;;16.50;99.90;;;;;;5049496;28;20044;-63
2022/07/27 08:11:18;;;;;;;4.53;1.20;;;16.50;99.90;;;;;;5040243;28;20136;-64
2022/07/27 08:13:44;;;;;;;6.53;1.50;;;16.50;99.90;;;;;;5062490;28;20079;-63
2022/07/27 08:16:10;;;;;;;4.57;1.60;;;16.40;99.90;;;;;;5071028;28;20064;-63
2022/07/27 08:18:36;;;;;;;3.83;1.48;;;16.40;99.90;;;;;;5071447;28;20038;-71
2022/07/27 08:21:01;;;;;;;6.30;1.52;;;16.50;99.90;;;;;;5047104;28;20462;-62
2022/07/27 08:23:27;;;;;;;5.40;1.70;;;16.40;99.90;;;;;;5037084;28;20037;-65
2022/07/27 08:25:53;;;;;;;7.38;1.75;;;16.40;99.90;;;;;;5050980;28;20395;-63
2022/07/27 08:28:19;;;;;;;6.07;1.52;;;16.40;99.90;;;;;;5054499;28;20068;-64
2022/07/27 08:30:45;;;;;;;5.57;1.48;;;16.50;99.90;;;;;;5048930;28;20055;-61
2022/07/27 08:33:11;;;;;;;4.75;1.20;;;16.60;99.90;;;;;;5046403;28;20380;-62
2022/07/27 08:35:37;;;;;;;3.38;1.27;;;16.80;99.90;;;;;;5045349;28;20033;-62
2022/07/27 08:38:05;;;;;;;3.42;1.60;;;17.00;99.90;;;;;;5055216;28;20062;-62
2022/07/27 08:40:31;;;;;;;5.03;1.40;;;17.10;99.90;;;;;;5043016;28;20487;-62
2022/07/27 08:43:00;;;;;;;4.22;1.33;;;17.30;99.90;;;;;;5052790;28;20639;-63
2022/07/27 08:45:25;;;;;;;4.25;1.35;;;17.50;99.90;;;;;;5048959;28;20037;-62
2022/07/27 08:47:51;;;;;;;6.95;1.30;;;17.80;99.90;;;;;;5054184;28;20371;-63
2022/07/27 08:50:27;;;;;;;4.15;1.23;;;18.10;99.90;;;;;;5051968;28;20071;-63
2022/07/27 08:53:09;;;;;;;5.53;1.38;;;18.20;99.90;;;;;;5031135;28;20037;-62
2022/07/27 08:55:40;;;;;;;2.53;1.13;;;18.50;99.90;;;;;;5047549;28;20052;-63
2022/07/27 08:58:07;;;;;;;2.67;1.13;;;18.70;99.90;;;;;;5054595;28;20063;-62
2022/07/27 09:00:34;;;;;;;3.15;1.10;;;19.10;99.90;;;;;;5050365;28;20051;-63
2022/07/27 09:03:01;;;;;;;6.40;1.73;;;19.40;99.70;;;;;;5040225;28;20484;-65
2022/07/27 09:05:28;;;;;;;2.60;1.00;;;19.60;99.30;;;;;;5047393;28;20052;-64
2022/07/27 09:07:54;;;;;;;5.00;1.38;;;19.80;98.60;;;;;;5045734;28;20052;-63
2022/07/27 09:10:31;;;;;;;6.20;1.85;;;19.90;97.90;;;;;;5053041;28;20026;-64
2022/07/27 09:12:57;;;;;;;3.65;1.23;;;20.10;97.20;;;;;;5035901;28;20041;-64
2022/07/27 09:15:24;;;;;;;4.43;1.20;;;20.30;98.00;;;;;;5037594;28;20116;-64
2022/07/27 09:17:49;;;;;;;3.58;1.30;;;20.50;96.70;;;;;;5044225;28;20112;-63
2022/07/27 09:20:17;;;;;;;4.57;1.27;;;20.30;95.40;;;;;;5051651;28;20079;-63
2022/07/27 09:22:54;;;;;;;3.55;1.10;;;20.20;95.30;;;;;;5049597;28;20084;-62
2022/07/27 09:25:29;;;;;;;3.72;1.55;;;20.20;95.30;;;;;;5051135;28;20430;-63
2022/07/27 09:27:57;;;;;;;3.90;1.50;;;20.20;94.60;;;;;;5040611;28;20065;-64
2022/07/27 09:30:24;;;;;;;3.58;1.33;;;20.20;94.70;;;;;;5048869;28;20476;-63
2022/07/27 09:32:58;;;;;;;2.47;1.35;;;20.30;95.10;;;;;;5035902;28;20080;-63
2022/07/27 09:35:34;;;;;;;4.75;1.20;;;20.40;94.90;;;;;;5039924;28;20033;-62
2022/07/27 09:38:20;;;;;;;4.95;1.75;;;20.50;94.10;;;;;;5037341;28;20037;-63
2022/07/27 09:40:48;;;;;;;2.92;1.30;;;20.40;94.30;;;;;;5047630;28;20037;-64
2022/07/27 09:43:14;;;;;;;6.10;1.48;;;20.30;94.90;;;;;;5045870;28;20398;-64
2022/07/27 09:45:44;;;;;;;5.03;1.30;;;20.20;94.60;;;;;;5051415;28;20110;-64
2022/07/27 09:48:15;;;;;;;4.63;1.40;;;20.00;94.30;;;;;;5051825;28;20413;-64
2022/07/27 09:50:58;;;;;;;4.20;1.42;;;19.80;94.40;;;;;;5042859;28;20060;-65
2022/07/27 09:53:26;;;;;;;4.38;1.40;;;19.70;94.80;;;;;;5059769;28;20107;-63
2022/07/27 09:55:57;;;;;;;3.60;1.20;;;19.70;95.20;;;;;;5043799;28;20034;-64
2022/07/27 09:58:44;;;;;;;4.25;1.27;;;19.60;95.50;;;;;;5042946;28;20510;-63
2022/07/27 10:01:16;;;;;;;8.52;1.55;;;19.50;95.50;;;;;;5038506;28;20060;-63
2022/07/27 10:03:43;;;;;;;2.33;1.10;;;19.30;96.00;;;;;;5045509;28;20037;-62
2022/07/27 10:06:09;;;;;;;6.82;1.52;;;19.20;96.40;;;;;;5050861;28;20088;-62
2022/07/27 10:08:38;;;;;;;5.28;1.20;;;19.10;96.90;;;;;;5050746;28;20040;-65
2022/07/27 10:11:04;;;;;;;7.00;1.70;;;18.90;97.20;;;;;;5022342;28;20084;-63
2022/07/27 10:13:30;;;;;;;5.53;1.38;;;18.80;97.50;;;;;;5043554;28;20398;-63
2022/07/27 10:15:56;;;;;;;4.45;1.33;;;18.70;97.90;;;;;;5042366;28;20033;-62
2022/07/27 10:18:44;;;;;;;5.63;1.42;;;18.70;98.20;;;;;;5039002;28;20053;-64
2022/07/27 10:21:10;;;;;;;7.25;1.80;;;18.60;98.40;;;;;;5046121;28;20037;-62
2022/07/27 10:23:37;;;;;;;3.35;1.42;;;18.60;98.70;;;;;;5048198;28;20040;-64
2022/07/27 10:26:16;;;;;;;4.85;1.63;;;18.60;98.90;;;;;;5044759;28;20033;-64
2022/07/27 10:29:00;;;;;;;3.50;1.40;;;18.60;99.00;;;;;;5036158;28;20132;-62
2022/07/27 10:31:37;;;;;;;3.83;1.50;;;18.70;99.20;;;;;;5036859;28;20040;-62
2022/07/27 10:34:05;;;;;;;6.57;1.80;;;18.70;99.20;;;;;;5039754;28;20048;-63
2022/07/27 10:36:31;;;;;;;3.80;1.25;;;18.80;99.10;;;;;;5049190;28;20386;-64
2022/07/27 10:38:59;;;;;;;4.28;1.50;;;18.80;99.00;;;;;;5041919;28;20132;-64
2022/07/27 10:41:31;;;;;;;3.50;1.35;;;18.90;99.00;;;;;;5043252;28;20033;-63
2022/07/27 10:44:16;;;;;;;4.38;1.40;;;19.00;99.00;;;;;;5050559;28;20072;-63
2022/07/27 10:46:52;;;;;;;5.72;1.35;;;19.10;98.70;;;;;;5051181;28;20040;-63
2022/07/27 10:49:26;;;;;;;6.15;1.50;;;19.30;98.90;;;;;;5024954;28;20134;-65
2022/07/27 10:51:53;;;;;;;3.55;1.45;;;19.50;99.00;;;;;;5041071;22;20066;-64
2022/07/27 10:54:20;;;;;;;3.92;1.58;;;19.70;98.70;;;;;;5009485;28;20107;-64
2022/07/27 10:56:48;;;;;;;5.28;1.35;;;19.80;98.50;;;;;;5009903;28;20487;-64
2022/07/27 10:59:34;;;;;;;3.67;1.38;;;19.80;98.20;;;;;;5010970;28;20037;-64
2022/07/27 11:01:59;;;;;;;4.18;1.45;;;19.80;97.60;;;;;;5002581;28;20096;-64
2022/07/27 11:04:26;;;;;;;2.83;1.10;;;19.80;97.60;;;;;;5004402;28;20117;-64
2022/07/27 11:06:56;;;;;;;2.70;1.25;;;19.90;97.40;;;;;;5005128;28;20061;-64
2022/07/27 11:09:22;;;;;;;4.20;1.50;;;19.90;97.30;;;;;;4999258;28;20041;-64
2022/07/27 11:11:48;;;;;;;2.53;1.10;;;20.00;97.40;;;;;;5010985;28;20377;-64
2022/07/27 11:14:14;;;;;;;4.07;1.45;;;20.10;97.30;;;;;;5010939;28;20064;-63
2022/07/27 11:16:39;;;;;;;3.30;1.15;;;20.20;97.10;;;;;;5009785;28;20096;-64
2022/07/27 11:19:06;;;;;;;3.67;1.38;;;20.30;97.00;;;;;;5003921;28;20448;-64
2022/07/27 11:21:37;;;;;;;3.15;1.17;;;20.20;96.60;;;;;;5011269;28;20033;-64
2022/07/27 11:24:10;;;;;;;3.67;1.20;;;20.30;96.40;;;;;;5010597;28;20042;-63
2022/07/27 11:26:48;;;;;;;5.10;1.30;;;20.20;96.40;;;;;;5008153;28;20038;-63
2022/07/27 11:29:16;;;;;;;5.38;1.65;;;20.20;96.10;;;;;;5002040;28;20041;-63
2022/07/27 11:31:44;;;;;;;5.03;1.30;;;20.20;96.30;;;;;;5005312;28;20050;-64
2022/07/27 11:34:12;;;;;;;2.65;1.27;;;20.30;96.30;;;;;;5009741;28;20034;-64
2022/07/27 11:36:42;;;;;;;3.78;1.30;;;20.50;96.30;;;;;;5005911;28;20034;-64
2022/07/27 11:39:11;;;;;;;2.83;1.33;;;20.80;96.20;;;;;;5005144;28;20092;-63
2022/07/27 11:41:39;;;;;;;3.03;1.30;;;21.20;96.00;;;;;;5005433;28;20396;-64
2022/07/27 11:44:10;;;;;;;4.45;1.38;;;21.40;95.30;;;;;;5010716;28;20553;-64
2022/07/27 11:46:44;;;;;;;3.00;1.05;;;21.50;94.50;;;;;;5008245;28;20041;-64
2022/07/27 11:49:15;;;;;;;3.28;1.23;;;21.60;94.10;;;;;;5006246;28;20073;-64
2022/07/27 11:51:42;;;;;;;4.47;1.52;;;21.60;93.90;;;;;;5007725;28;20046;-64
2022/07/27 11:54:29;;;;;;;2.80;1.15;;;21.60;93.90;;;;;;5009231;28;20046;-64
2022/07/27 11:56:59;;;;;;;4.03;1.27;;;21.50;92.80;;;;;;5007718;28;20049;-63
2022/07/27 11:59:31;;;;;;;2.88;1.27;;;21.40;93.40;;;;;;5001033;28;20516;-64
2022/07/27 12:01:59;;;;;;;4.80;1.20;;;21.30;93.10;;;;;;5008222;28;20116;-63
2022/07/27 12:04:39;;;;;;;4.45;1.52;;;21.30;93.20;;;;;;5010606;28;20364;-64
2022/07/27 12:07:10;;;;;;;4.55;1.40;;;21.30;92.60;;;;;;5008842;28;20038;-64
2022/07/27 12:09:42;;;;;;;3.17;1.40;;;21.30;92.80;;;;;;5008995;28;20034;-64
2022/07/27 12:12:27;;;;;;;6.45;1.30;;;21.50;93.30;;;;;;5008690;28;20044;-64
2022/07/27 12:14:56;;;;;;;3.33;1.05;;;21.70;92.80;;;;;;5006441;28;20373;-64
2022/07/27 12:17:26;;;;;;;3.03;1.40;;;21.90;92.80;;;;;;5008438;28;20044;-65
2022/07/27 12:20:01;;;;;;;2.63;1.25;;;21.90;92.00;;;;;;5009203;28;20052;-64
2022/07/27 12:22:32;;;;;;;3.78;1.23;;;21.90;91.10;;;;;;4998689;28;20045;-64
2022/07/27 12:25:00;;;;;;;2.72;1.00;;;21.90;90.90;;;;;;5010375;28;20050;-64
2022/07/27 12:27:27;;;;;;;3.25;1.10;;;21.70;90.80;;;;;;5008465;28;20033;-64
2022/07/27 12:30:12;;;;;;;2.85;1.10;;;21.60;90.90;;;;;;5009080;28;20428;-64
2022/07/27 12:32:43;;;;;;;2.70;1.20;;;21.50;90.90;;;;;;5005768;28;20034;-64
2022/07/27 12:35:18;;;;;;;7.78;1.40;;;21.30;91.10;;;;;;5009825;28;20038;-64
2022/07/27 12:37:43;;;;;;;3.53;1.42;;;21.10;90.80;;;;;;5008357;28;20587;-64
2022/07/27 12:40:14;;;;;;;2.10;1.20;;;20.90;91.30;;;;;;5005584;28;20041;-64
2022/07/27 12:42:40;;;;;;;3.40;1.40;;;20.80;91.40;;;;;;4997431;28;20507;-64
2022/07/27 12:45:14;;;;;;;2.15;1.10;;;20.60;91.90;;;;;;5005365;28;20160;-64
2022/07/27 12:47:40;;;;;;;3.33;1.10;;;20.50;92.30;;;;;;5007998;28;20038;-64
2022/07/27 12:50:13;;;;;;;3.78;1.70;;;20.40;92.70;;;;;;5001446;28;20096;-64
2022/07/27 12:52:49;;;;;;;2.28;1.13;;;20.30;93.10;;;;;;5000957;28;20034;-64
2022/07/27 12:55:16;;;;;;;2.72;1.05;;;20.20;93.30;;;;;;5008938;28;20034;-64